Metar Cercanos

 

LEPA - Palma De Mallorc, Spain
Distance from station: ONO 38km
Actualización: Mon, 19-Apr-2021 9:00pm CEST
Few Clouds
Few Clouds
 Viento del S
Viento: S 6 km/h
Temperatura: 16°C
Rocío: 12°C
Humedad: 77%
Barómetro: 1016 hPa
Clouds: Few Clouds
Visibility: 10 km
Cloud details: Few Clouds 762 m
2021/04/19 19:00 LEPA 191900Z 19003KT 160V220 9999 FEW025 16/12 Q1016 NOSIG
LEMH - Mahon/Menorca Is, Spain
Distance from station: ENE 105km
Actualización: Mon, 19-Apr-2021 9:00pm CEST
Few Clouds
Few Clouds
 Viento del SSO
Viento: SSO 7 km/h
Temperatura: 13°C
Rocío: 9°C
Humedad: 77%
Barómetro: 1017 hPa
Clouds: Few Clouds
Visibility: 10 km
Cloud details: Few Clouds 1067 m
2021/04/19 19:00 LEMH 191900Z 21004KT 170V230 9999 FEW035 13/09 Q1017
 
LEIB - Ibiza/Es Codola, Spain
Distance from station: OSO 165km
Actualización: Mon, 19-Apr-2021 9:00pm CEST
Despejado
Despejado
 Viento del ESE
Viento: ESE 6 km/h
Temperatura: 15°C
Rocío: 12°C
Humedad: 82%
Barómetro: 1015 hPa
Resumen: Despejado
Visibility: greater than 10 km
2021/04/19 19:00 LEIB 191900Z 12003KT 080V150 CAVOK 15/12 Q1015 NOSIG
LEBL - Barcelona Airpor, Spain
Distance from station: NNO 225km
Actualización: Mon, 19-Apr-2021 9:00pm CEST
Parcialmente nuboso
Parcialmente nuboso
 Viento del ENE
Viento: ENE 19 km/h
Temperatura: 14°C
Rocío: 11°C
Humedad: 82%
Barómetro: 1017 hPa
Clouds: Parcialmente nuboso
Visibility: 10 km
Cloud details: Parcialmente nuboso 610 m
2021/04/19 19:00 LEBL 191900Z 06010KT 9999 SCT020 14/11 Q1017 NOSIG
 
LEVC - Valencia (civ/Mi, Spain
Distance from station: NO 188km
Actualización: Mon, 19-Apr-2021 9:00pm CEST
Despejado
Despejado
 Viento del E
Viento: E 6 km/h
Temperatura: 17°C
Rocío: 5°C
Humedad: 45%
Barómetro: 1014 hPa
Resumen: Despejado
Visibility: greater than 10 km
2021/04/19 19:00 LEVC 191900Z 09003KT 060V130 CAVOK 17/05 Q1014 NOSIG
LEGE - Gerona/Costa Bra, Spain
Distance from station: N 276km
Actualización: Mon, 19-Apr-2021 9:00pm CEST
Parcialmente nuboso
Parcialmente nuboso
 Viento del SSO
Viento: SSO 11 km/h
Temperatura: 11°C
Rocío: 7°C
Humedad: 77%
Barómetro: 1017 hPa
Clouds: Parcialmente nuboso
Visibility: 10 km
Cloud details: Parcialmente nuboso 2134 m
2021/04/19 19:00 LEGE 191900Z 21006KT 9999 SCT070 11/07 Q1017
 
LEAL - Alicante/El Alte, Spain
Distance from station: OSO 344km
Actualización: Mon, 19-Apr-2021 9:00pm CEST
Despejado
Despejado
 Viento del varies
Viento: varies 2 km/h
Temperatura: 17°C
Rocío: 10°C
Humedad: 64%
Barómetro: 1014 hPa
Resumen: Despejado
Visibility: greater than 10 km
2021/04/19 19:00 LEAL 191900Z VRB01KT CAVOK 17/10 Q1014 NOSIG
LEAM - Almeria Airport, Spain
Distance from station: SSO 56km
Actualización: Mon, 19-Apr-2021 9:00pm CEST
Despejado
Despejado
 Viento del SO
Viento: SO 15 km/h
Temperatura: 17°C
Rocío: 13°C
Humedad: 77%
Barómetro: 1016 hPa
Resumen: Despejado
Visibility: greater than 10 km
2021/04/19 19:00 LEAM 191900Z 23008KT 190V250 CAVOK 17/13 Q1016
 
LEZG - Zaragoza (mil/Ci, Spain
Distance from station: NO 431km
Actualización: Mon, 19-Apr-2021 9:00pm CEST
Despejado
Despejado
 Viento del SO
Viento: SO 11 km/h
Temperatura: 17°C
Rocío: 3°C
Humedad: 39%
Barómetro: 1013 hPa
Resumen: Despejado
Visibility: greater than 10 km
2021/04/19 19:00 LEZG 191900Z 23006KT CAVOK 17/03 Q1013
LEMD - Madrid/Barajas, Spain
Distance from station: ONO 234km
Actualización: Mon, 19-Apr-2021 9:00pm CEST
Despejado
Despejado
 Viento del O
Viento: O 17 km/h
Temperatura: 17°C
Rocío: 7°C
Humedad: 52%
Barómetro: 1015 hPa
Resumen: Despejado
Visibility: greater than 10 km
2021/04/19 19:00 LEMD 191900Z 28009KT CAVOK 17/07 Q1015 NOSIG
 
LEGR - Granada Airport, Spain
Distance from station: OSO 62km
Actualización: Mon, 19-Apr-2021 9:00pm CEST
Parcialmente nuboso
Parcialmente nuboso
 Viento del O
Viento: O 9 km/h
Temperatura: 18°C
Rocío: 6°C
Humedad: 46%
Barómetro: 1016 hPa
Clouds: Parcialmente nuboso
Visibility: 10 km
Cloud details: Parcialmente nuboso 3048 m
2021/04/19 19:00 LEGR 191900Z 28005KT 9999 SCT100 18/06 Q1016
LEMG - Malaga (civ/Mil), Spain
Distance from station: OSO 227km
Actualización: Mon, 19-Apr-2021 9:00pm CEST
Few Clouds
Few Clouds
 Viento del ENE
Viento: ENE 7 km/h
Temperatura: 17°C
Rocío: 14°C
Humedad: 83%
Barómetro: 1016 hPa
Clouds: Few Clouds
Visibility: 10 km
Cloud details: Few Clouds 1829 m
2021/04/19 19:00 LEMG 191900Z 07004KT 030V110 9999 FEW060 17/14 Q1016 NOSIG
 
LEZL - Sevilla (civ/Mil, Spain
Distance from station: S 318km
Actualización: Mon, 19-Apr-2021 9:00pm CEST
Despejado
Despejado
 Viento del SO
Viento: SO 19 km/h
Temperatura: 21°C
Rocío: 8°C
Humedad: 43%
Barómetro: 1016 hPa
Resumen: Despejado
Visibility: greater than 10 km
2021/04/19 19:00 LEZL 191900Z 23010KT 200V260 CAVOK 21/08 Q1016 NOSIG
LEVT - Vitoria, Spain
Distance from station: NO 226km
Actualización: Mon, 19-Apr-2021 9:00pm CEST
Muy nuboso
Muy nuboso
 Viento del NE
Viento: NE 7 km/h
Temperatura: 12°C
Rocío: 0°C
Humedad: 44%
Barómetro: 1016 hPa
Clouds: Muy nuboso
Visibility: 10 km
Cloud details: Few Clouds 762 m
Muy nuboso 1829 m
2021/04/19 19:00 LEVT 191900Z 05004KT 9999 FEW025 BKN060 12/M00 Q1016
 
LEBB - Bilbao/Sondica, Spain
Distance from station: NNO 235km
Actualización: Mon, 19-Apr-2021 9:00pm CEST
Lluvia débil, Parcialmente nuboso
Lluvia débil, Parcialmente nuboso
 Viento del ONO
Viento: ONO 11 km/h
Temperatura: 13°C
Rocío: 9°C
Humedad: 77%
Barómetro: 1017 hPa
Resumen: Lluvia débil
Clouds: Parcialmente nuboso
Visibility: 10 km
Cloud details: Parcialmente nuboso 1981 m
2021/04/19 19:00 LEBB 191900Z 29006KT 250V320 9999 -RA SCT065 13/09 Q1017 NOSIG
LESO - San Sebastian/Fu, Spain
Distance from station: N 231km
Actualización: Mon, 19-Apr-2021 9:00pm CEST
Despejado
Despejado
 Viento del varies
Viento: varies 2 km/h
Temperatura: 14°C
Rocío: 8°C
Humedad: 67%
Barómetro: 1016 hPa
Resumen: Despejado
Visibility: greater than 10 km
2021/04/19 19:00 LESO 191900Z VRB01KT CAVOK 14/08 Q1016
 
LEVD - Valladolid(Mil/C, Spain
Distance from station: ONO 239km
Actualización: Mon, 19-Apr-2021 9:00pm CEST
Few Clouds
Few Clouds
 Viento del SO
Viento: SO 4 km/h
Temperatura: 11°C
Rocío: 7°C
Humedad: 77%
Barómetro: 1016 hPa
Clouds: Few Clouds
Visibility: 10 km
Cloud details: Few Clouds 1372 m
2021/04/19 19:00 LEVD 191900Z 23002KT 9999 FEW045 11/07 Q1016
LESA - Salamanca (civ/M, Spain
Distance from station: ONO 349km
Actualización: Mon, 19-Apr-2021 9:00pm CEST
Despejado
Despejado
 Viento del varies
Viento: varies 2 km/h
Temperatura: 15°C
Rocío: 7°C
Humedad: 59%
Barómetro: 1016 hPa
Resumen: Despejado
Visibility: greater than 10 km
2021/04/19 19:00 LESA 191900Z VRB01KT CAVOK 15/07 Q1016
 
LEXJ - Santander/Paraya, Spain
Distance from station: NNO 247km
Actualización: Mon, 19-Apr-2021 9:00pm CEST
Parcialmente nuboso
Parcialmente nuboso
 Viento del varies
Viento: varies 2 km/h
Temperatura: 14°C
Rocío: 11°C
Humedad: 82%
Barómetro: 1017 hPa
Clouds: Parcialmente nuboso
Visibility: 10 km
Cloud details: Parcialmente nuboso 2621 m
2021/04/19 19:00 LEXJ 191900Z VRB01KT 9999 SCT086 14/11 Q1017
LEAS - Asturias/Aviles, Spain
Distance from station: NO 214km
Actualización: Mon, 19-Apr-2021 9:00pm CEST
Parcialmente nuboso
Parcialmente nuboso
 Viento del NO
Viento: NO 9 km/h
Temperatura: 12°C
Rocío: 9°C
Humedad: 82%
Barómetro: 1017 hPa
Clouds: Parcialmente nuboso
Visibility: 10 km
Cloud details: Few Clouds 1219 m
Parcialmente nuboso 2073 m
2021/04/19 19:00 LEAS 191900Z 31005KT 9999 FEW040 SCT068 12/09 Q1017 NOSIG
 
LECO - La Coruna/Alvedr, Spain
Distance from station: ONO 222km
Actualización: Mon, 19-Apr-2021 9:00pm CEST
Few Clouds
Few Clouds
 Viento del NNO
Viento: NNO 6 km/h
Temperatura: 14°C
Rocío: 9°C
Humedad: 72%
Barómetro: 1017 hPa
Clouds: Few Clouds
Visibility: 10 km
Cloud details: Few Clouds 914 m
2021/04/19 19:00 LECO 191900Z 34003KT 300V030 9999 FEW030 14/09 Q1017 NOSIG
LEVX - Vigo/Peinador, Spain
Distance from station: O 214km
Actualización: Mon, 19-Apr-2021 9:00pm CEST
Muy nuboso
Muy nuboso
 Viento del varies
Viento: varies 4 km/h
Temperatura: 13°C
Rocío: 6°C
Humedad: 63%
Barómetro: 1018 hPa
Clouds: Muy nuboso
Visibility: 10 km
Cloud details: Muy nuboso 1067 m
2021/04/19 19:00 LEVX 191900Z VRB02KT 9999 BKN035 13/06 Q1018 NOSIG